Route Details

Aircraft Information
Group: European Fleet
Types: A30F, A31F, B738
Route Data
Distance: 347nm
Duration: 1h 05m
Origin METAR: EKCH 010553Z 27019KT 9999 -RA BKN024 04/01 Q1000 TEMPO 27020G32KT SCT020CB
Dest. METAR: EDDK 010550Z AUTO 27014KT 9999 SCT024 06/02 Q1020 NOSIG
Freight Data
(for Feb 1, 2023)
Load Factor:
81%
Manifested Cargo: 74,812lbs
Financial History
Total Freight: 389,483lbs
Average Load: 0lbs/flt
Fuel Used: 115,351lbs
Avg. Fuel Used: 0lbs/flt
Fuel Expense: $58,355
Avg. Fuel Expense: $0
Avg. Fuel Cost: $0/lbs
Total Gross Income: $877,315
Pilot Pay: $2,599
Total Expenses: $187,472
Total Revenue: $569,968
Average Revenue: $0

Capitol Logistics 515




EKCH
Copenhagen Kastrup Airport
Copenhagen, DK
EDDK
Cologne Bonn Airport
Cologne, DE